Current | Forecast
Updated: 2:00 AM +10 on October 20, 2017
Observed at Port Moresby Airport, Papua New Guinea
Temperature 75°F
Humidity 94%
Dew Point 73°F
Wind North at 0 mph
Pressure 29.77 in (Falling)
Conditions Drizzle
Visibility 6.2 miles
UV 0 out of 16
Clouds (FEW) : 1200 ft
Mostly Cloudy (BKN) : 4000 ft
Overcast (OVC) : 14000 ft
Yesterday's Maximum 88°F
Yesterday's Minimum 75°F approx.
Yesterday's Cooling Degree Days 17 approx.
Sunrise5:45 AM +10
Sunset6:06 PM +10
Moon Rise6:00 AM +10
Moon Set6:32 PM +10
Moon PhaseMoon Phase
Waning Crescent
Raw METARMETAR AYPY 191600Z 00000KT 9999 DZ FEW012 BKN040 OVC140 24/23 Q1008


Monday
. High: 86° F.
Tuesday
. High: 86° F.
Wednesday
. High: 84° F.
Thursday
. High: 86° F.
Friday
. High: 86° F.
Saturday
. High: 87° F.
Sunday
. High: 86° F.
Monday
. High: 87° F.

Units: English | Metric

Find the Weather for any City, State or Zipcode, or Country:

U.S. State List | Severe Weather | Tropical Storms | Ski Conditions
United States | Canada | Central America | South America | Asia | Europe | Australia | Africa | Islands

Weather Underground

© Copyright 2017
The Weather Company, LLC